sensor_id;sensor_type;location;lat;lon;timestamp;P1;durP1;ratioP1;P2;durP2;ratioP2
49051;SDS011;34866;48.670;18.260;2024-03-22T00:01:46;24.50;;;11.88;;
49051;SDS011;34866;48.670;18.260;2024-03-22T00:04:13;23.50;;;12.18;;
49051;SDS011;34866;48.670;18.260;2024-03-22T00:06:41;22.65;;;11.40;;
49051;SDS011;34866;48.670;18.260;2024-03-22T00:09:07;25.92;;;12.15;;
49051;SDS011;34866;48.670;18.260;2024-03-22T00:11:33;23.55;;;11.52;;
49051;SDS011;34866;48.670;18.260;2024-03-22T00:13:59;30.05;;;12.43;;
49051;SDS011;34866;48.670;18.260;2024-03-22T00:16:25;22.15;;;11.88;;
49051;SDS011;34866;48.670;18.260;2024-03-22T00:18:50;26.85;;;11.95;;
49051;SDS011;34866;48.670;18.260;2024-03-22T00:21:16;26.98;;;12.35;;
49051;SDS011;34866;48.670;18.260;2024-03-22T00:23:43;23.92;;;11.13;;
49051;SDS011;34866;48.670;18.260;2024-03-22T00:26:08;25.10;;;13.63;;
49051;SDS011;34866;48.670;18.260;2024-03-22T00:28:34;25.25;;;12.55;;
49051;SDS011;34866;48.670;18.260;2024-03-22T00:31:00;28.20;;;12.52;;
49051;SDS011;34866;48.670;18.260;2024-03-22T00:33:25;24.42;;;11.25;;
49051;SDS011;34866;48.670;18.260;2024-03-22T00:35:51;30.45;;;13.13;;
49051;SDS011;34866;48.670;18.260;2024-03-22T00:38:16;25.88;;;12.30;;
49051;SDS011;34866;48.670;18.260;2024-03-22T00:40:42;20.23;;;10.45;;
49051;SDS011;34866;48.670;18.260;2024-03-22T00:43:08;29.90;;;12.90;;
49051;SDS011;34866;48.670;18.260;2024-03-22T00:45:34;26.20;;;11.85;;
49051;SDS011;34866;48.670;18.260;2024-03-22T00:47:59;22.92;;;11.05;;
49051;SDS011;34866;48.670;18.260;2024-03-22T00:50:25;25.92;;;12.02;;
49051;SDS011;34866;48.670;18.260;2024-03-22T00:52:51;21.55;;;11.15;;
49051;SDS011;34866;48.670;18.260;2024-03-22T00:55:18;28.17;;;12.98;;
49051;SDS011;34866;48.670;18.260;2024-03-22T00:57:44;26.55;;;12.50;;
49051;SDS011;34866;48.670;18.260;2024-03-22T01:00:10;21.05;;;11.15;;
49051;SDS011;34866;48.670;18.260;2024-03-22T01:02:36;23.42;;;11.55;;
49051;SDS011;34866;48.670;18.260;2024-03-22T01:05:02;22.48;;;10.02;;
49051;SDS011;34866;48.670;18.260;2024-03-22T01:07:30;27.35;;;11.55;;
49051;SDS011;34866;48.670;18.260;2024-03-22T01:09:55;25.25;;;11.50;;
49051;SDS011;34866;48.670;18.260;2024-03-22T01:12:21;25.15;;;12.15;;
49051;SDS011;34866;48.670;18.260;2024-03-22T01:14:46;25.80;;;12.15;;
49051;SDS011;34866;48.670;18.260;2024-03-22T01:17:12;29.02;;;12.25;;
49051;SDS011;34866;48.670;18.260;2024-03-22T01:19:38;24.50;;;10.98;;
49051;SDS011;34866;48.670;18.260;2024-03-22T01:22:03;24.00;;;11.18;;
49051;SDS011;34866;48.670;18.260;2024-03-22T01:24:29;22.63;;;11.38;;
49051;SDS011;34866;48.670;18.260;2024-03-22T01:26:56;27.80;;;11.75;;
49051;SDS011;34866;48.670;18.260;2024-03-22T01:29:22;29.02;;;11.77;;
49051;SDS011;34866;48.670;18.260;2024-03-22T01:31:47;24.90;;;11.02;;
49051;SDS011;34866;48.670;18.260;2024-03-22T01:34:13;28.20;;;12.95;;
49051;SDS011;34866;48.670;18.260;2024-03-22T01:36:40;31.65;;;13.30;;
49051;SDS011;34866;48.670;18.260;2024-03-22T01:39:06;27.38;;;13.95;;
49051;SDS011;34866;48.670;18.260;2024-03-22T01:41:31;32.05;;;15.55;;
49051;SDS011;34866;48.670;18.260;2024-03-22T01:43:57;33.17;;;13.45;;
49051;SDS011;34866;48.670;18.260;2024-03-22T01:46:23;23.25;;;12.23;;
49051;SDS011;34866;48.670;18.260;2024-03-22T01:48:49;36.22;;;13.10;;
49051;SDS011;34866;48.670;18.260;2024-03-22T01:51:17;29.70;;;13.77;;
49051;SDS011;34866;48.670;18.260;2024-03-22T01:53:43;32.95;;;14.38;;
49051;SDS011;34866;48.670;18.260;2024-03-22T01:56:11;24.10;;;12.43;;
49051;SDS011;34866;48.670;18.260;2024-03-22T01:58:37;28.20;;;13.07;;
49051;SDS011;34866;48.670;18.260;2024-03-22T02:01:04;33.22;;;13.55;;
49051;SDS011;34866;48.670;18.260;2024-03-22T02:03:30;26.70;;;12.57;;
49051;SDS011;34866;48.670;18.260;2024-03-22T02:05:56;30.92;;;13.77;;
49051;SDS011;34866;48.670;18.260;2024-03-22T02:08:21;31.63;;;13.73;;
49051;SDS011;34866;48.670;18.260;2024-03-22T02:10:47;26.27;;;12.80;;
49051;SDS011;34866;48.670;18.260;2024-03-22T02:13:13;24.15;;;12.93;;
49051;SDS011;34866;48.670;18.260;2024-03-22T02:15:38;28.00;;;12.73;;
49051;SDS011;34866;48.670;18.260;2024-03-22T02:18:04;28.52;;;11.40;;
49051;SDS011;34866;48.670;18.260;2024-03-22T02:20:30;21.45;;;12.10;;
49051;SDS011;34866;48.670;18.260;2024-03-22T02:22:56;23.27;;;12.68;;
49051;SDS011;34866;48.670;18.260;2024-03-22T02:25:23;27.75;;;12.27;;
49051;SDS011;34866;48.670;18.260;2024-03-22T02:27:48;27.08;;;12.93;;
49051;SDS011;34866;48.670;18.260;2024-03-22T02:30:15;35.28;;;14.07;;
49051;SDS011;34866;48.670;18.260;2024-03-22T02:32:42;26.27;;;13.45;;
49051;SDS011;34866;48.670;18.260;2024-03-22T02:35:08;26.85;;;12.52;;
49051;SDS011;34866;48.670;18.260;2024-03-22T02:37:34;23.10;;;11.57;;
49051;SDS011;34866;48.670;18.260;2024-03-22T02:40:00;24.33;;;11.43;;
49051;SDS011;34866;48.670;18.260;2024-03-22T02:42:25;27.55;;;11.85;;
49051;SDS011;34866;48.670;18.260;2024-03-22T02:44:51;26.23;;;12.82;;
49051;SDS011;34866;48.670;18.260;2024-03-22T02:47:17;29.40;;;11.15;;
49051;SDS011;34866;48.670;18.260;2024-03-22T02:49:43;24.27;;;11.52;;
49051;SDS011;34866;48.670;18.260;2024-03-22T02:52:09;24.08;;;11.40;;
49051;SDS011;34866;48.670;18.260;2024-03-22T02:54:34;24.35;;;11.88;;
49051;SDS011;34866;48.670;18.260;2024-03-22T02:57:00;21.48;;;11.20;;
49051;SDS011;34866;48.670;18.260;2024-03-22T02:59:27;21.75;;;12.10;;
49051;SDS011;34866;48.670;18.260;2024-03-22T03:01:53;25.55;;;12.77;;
49051;SDS011;34866;48.670;18.260;2024-03-22T03:04:18;27.30;;;12.45;;
49051;SDS011;34866;48.670;18.260;2024-03-22T03:06:44;23.60;;;11.60;;
49051;SDS011;34866;48.670;18.260;2024-03-22T03:09:13;26.33;;;12.55;;
49051;SDS011;34866;48.670;18.260;2024-03-22T03:11:39;32.00;;;13.13;;
49051;SDS011;34866;48.670;18.260;2024-03-22T03:14:05;25.63;;;12.52;;
49051;SDS011;34866;48.670;18.260;2024-03-22T03:16:31;26.83;;;11.82;;
49051;SDS011;34866;48.670;18.260;2024-03-22T03:18:57;24.17;;;11.75;;
49051;SDS011;34866;48.670;18.260;2024-03-22T03:21:23;25.75;;;10.88;;
49051;SDS011;34866;48.670;18.260;2024-03-22T03:23:48;30.23;;;12.35;;
49051;SDS011;34866;48.670;18.260;2024-03-22T03:26:14;27.52;;;12.95;;
49051;SDS011;34866;48.670;18.260;2024-03-22T03:28:40;24.00;;;11.57;;
49051;SDS011;34866;48.670;18.260;2024-03-22T03:31:05;30.30;;;11.75;;
49051;SDS011;34866;48.670;18.260;2024-03-22T03:33:32;23.15;;;10.85;;
49051;SDS011;34866;48.670;18.260;2024-03-22T03:35:59;24.10;;;12.05;;
49051;SDS011;34866;48.670;18.260;2024-03-22T03:38:25;24.67;;;12.45;;
49051;SDS011;34866;48.670;18.260;2024-03-22T03:40:50;26.90;;;11.23;;
49051;SDS011;34866;48.670;18.260;2024-03-22T03:43:16;25.17;;;11.98;;
49051;SDS011;34866;48.670;18.260;2024-03-22T03:45:41;23.05;;;11.48;;
49051;SDS011;34866;48.670;18.260;2024-03-22T03:48:07;22.05;;;10.23;;
49051;SDS011;34866;48.670;18.260;2024-03-22T03:50:35;25.25;;;11.50;;
49051;SDS011;34866;48.670;18.260;2024-03-22T03:53:00;23.20;;;12.25;;
49051;SDS011;34866;48.670;18.260;2024-03-22T03:55:27;27.73;;;12.73;;
49051;SDS011;34866;48.670;18.260;2024-03-22T03:57:54;24.77;;;11.23;;
49051;SDS011;34866;48.670;18.260;2024-03-22T04:00:20;24.80;;;12.02;;
49051;SDS011;34866;48.670;18.260;2024-03-22T04:02:48;24.40;;;10.93;;
49051;SDS011;34866;48.670;18.260;2024-03-22T04:05:15;25.77;;;12.27;;
49051;SDS011;34866;48.670;18.260;2024-03-22T04:07:40;23.88;;;12.43;;
49051;SDS011;34866;48.670;18.260;2024-03-22T04:10:07;19.35;;;10.55;;
49051;SDS011;34866;48.670;18.260;2024-03-22T04:12:33;25.80;;;11.82;;
49051;SDS011;34866;48.670;18.260;2024-03-22T04:14:59;26.65;;;13.18;;
49051;SDS011;34866;48.670;18.260;2024-03-22T04:17:25;26.50;;;12.63;;
49051;SDS011;34866;48.670;18.260;2024-03-22T04:19:51;22.50;;;10.30;;
49051;SDS011;34866;48.670;18.260;2024-03-22T04:22:17;31.48;;;11.55;;
49051;SDS011;34866;48.670;18.260;2024-03-22T04:24:43;20.67;;;11.10;;
49051;SDS011;34866;48.670;18.260;2024-03-22T04:27:09;26.90;;;10.88;;
49051;SDS011;34866;48.670;18.260;2024-03-22T04:29:34;21.98;;;10.35;;
49051;SDS011;34866;48.670;18.260;2024-03-22T04:32:00;21.63;;;9.45;;
49051;SDS011;34866;48.670;18.260;2024-03-22T04:34:25;19.27;;;9.18;;
49051;SDS011;34866;48.670;18.260;2024-03-22T04:36:51;24.38;;;10.23;;
49051;SDS011;34866;48.670;18.260;2024-03-22T04:39:18;20.85;;;9.77;;
49051;SDS011;34866;48.670;18.260;2024-03-22T04:41:47;20.48;;;10.00;;
49051;SDS011;34866;48.670;18.260;2024-03-22T04:44:13;19.67;;;9.95;;
49051;SDS011;34866;48.670;18.260;2024-03-22T04:46:38;20.20;;;9.82;;
49051;SDS011;34866;48.670;18.260;2024-03-22T04:49:04;20.42;;;10.18;;
49051;SDS011;34866;48.670;18.260;2024-03-22T04:51:29;20.58;;;8.80;;
49051;SDS011;34866;48.670;18.260;2024-03-22T04:53:55;21.35;;;11.05;;
49051;SDS011;34866;48.670;18.260;2024-03-22T04:56:21;21.98;;;9.98;;
49051;SDS011;34866;48.670;18.260;2024-03-22T04:58:46;20.23;;;10.20;;
49051;SDS011;34866;48.670;18.260;2024-03-22T05:01:12;21.40;;;9.88;;
49051;SDS011;34866;48.670;18.260;2024-03-22T05:03:39;20.48;;;10.45;;
49051;SDS011;34866;48.670;18.260;2024-03-22T05:06:06;21.05;;;10.38;;
49051;SDS011;34866;48.670;18.260;2024-03-22T05:08:32;21.65;;;11.55;;
49051;SDS011;34866;48.670;18.260;2024-03-22T05:10:58;24.58;;;11.57;;
49051;SDS011;34866;48.670;18.260;2024-03-22T05:13:23;22.00;;;10.85;;
49051;SDS011;34866;48.670;18.260;2024-03-22T05:15:49;21.60;;;10.70;;
49051;SDS011;34866;48.670;18.260;2024-03-22T05:18:15;27.05;;;13.07;;
49051;SDS011;34866;48.670;18.260;2024-03-22T05:20:40;22.67;;;11.68;;
49051;SDS011;34866;48.670;18.260;2024-03-22T05:23:06;27.38;;;13.18;;
49051;SDS011;34866;48.670;18.260;2024-03-22T05:25:32;29.73;;;12.70;;
49051;SDS011;34866;48.670;18.260;2024-03-22T05:27:57;28.10;;;10.90;;
49051;SDS011;34866;48.670;18.260;2024-03-22T05:30:23;23.88;;;13.02;;
49051;SDS011;34866;48.670;18.260;2024-03-22T05:32:48;33.50;;;13.18;;
49051;SDS011;34866;48.670;18.260;2024-03-22T05:35:15;23.55;;;10.70;;
49051;SDS011;34866;48.670;18.260;2024-03-22T05:37:46;26.10;;;11.18;;
49051;SDS011;34866;48.670;18.260;2024-03-22T05:40:13;25.00;;;11.43;;
49051;SDS011;34866;48.670;18.260;2024-03-22T05:42:40;29.02;;;12.48;;
49051;SDS011;34866;48.670;18.260;2024-03-22T05:45:05;48.15;;;26.92;;
49051;SDS011;34866;48.670;18.260;2024-03-22T05:47:31;141.77;;;61.35;;
49051;SDS011;34866;48.670;18.260;2024-03-22T05:49:57;149.15;;;62.78;;
49051;SDS011;34866;48.670;18.260;2024-03-22T05:52:23;47.75;;;24.92;;
49051;SDS011;34866;48.670;18.260;2024-03-22T05:54:49;107.15;;;45.55;;
49051;SDS011;34866;48.670;18.260;2024-03-22T05:57:15;76.82;;;33.70;;
49051;SDS011;34866;48.670;18.260;2024-03-22T05:59:40;154.32;;;60.80;;
49051;SDS011;34866;48.670;18.260;2024-03-22T06:02:06;86.03;;;38.92;;
49051;SDS011;34866;48.670;18.260;2024-03-22T06:04:32;42.65;;;20.15;;
49051;SDS011;34866;48.670;18.260;2024-03-22T06:06:59;55.58;;;27.38;;
49051;SDS011;34866;48.670;18.260;2024-03-22T06:09:28;41.25;;;20.55;;
49051;SDS011;34866;48.670;18.260;2024-03-22T06:12:03;51.00;;;22.25;;
49051;SDS011;34866;48.670;18.260;2024-03-22T06:14:30;39.97;;;21.23;;
49051;SDS011;34866;48.670;18.260;2024-03-22T06:16:55;42.78;;;19.75;;
49051;SDS011;34866;48.670;18.260;2024-03-22T06:19:21;30.60;;;16.48;;
49051;SDS011;34866;48.670;18.260;2024-03-22T06:21:47;35.55;;;17.42;;
49051;SDS011;34866;48.670;18.260;2024-03-22T06:24:12;35.75;;;19.00;;
49051;SDS011;34866;48.670;18.260;2024-03-22T06:26:38;35.45;;;17.00;;
49051;SDS011;34866;48.670;18.260;2024-03-22T06:29:04;32.33;;;15.07;;
49051;SDS011;34866;48.670;18.260;2024-03-22T06:31:29;23.58;;;12.85;;
49051;SDS011;34866;48.670;18.260;2024-03-22T06:33:55;26.38;;;12.93;;
49051;SDS011;34866;48.670;18.260;2024-03-22T06:36:28;30.20;;;14.18;;
49051;SDS011;34866;48.670;18.260;2024-03-22T06:38:56;30.05;;;14.30;;
49051;SDS011;34866;48.670;18.260;2024-03-22T06:41:22;27.73;;;13.43;;
49051;SDS011;34866;48.670;18.260;2024-03-22T06:43:47;27.85;;;12.18;;
49051;SDS011;34866;48.670;18.260;2024-03-22T06:46:13;26.85;;;12.38;;
49051;SDS011;34866;48.670;18.260;2024-03-22T06:48:39;25.30;;;12.82;;
49051;SDS011;34866;48.670;18.260;2024-03-22T06:51:04;24.13;;;12.32;;
49051;SDS011;34866;48.670;18.260;2024-03-22T06:53:30;24.15;;;11.10;;
49051;SDS011;34866;48.670;18.260;2024-03-22T06:55:55;22.65;;;11.93;;
49051;SDS011;34866;48.670;18.260;2024-03-22T06:58:21;26.20;;;12.43;;
49051;SDS011;34866;48.670;18.260;2024-03-22T07:00:47;24.48;;;11.00;;
49051;SDS011;34866;48.670;18.260;2024-03-22T07:03:12;24.60;;;11.88;;
49051;SDS011;34866;48.670;18.260;2024-03-22T07:05:39;22.27;;;10.85;;
49051;SDS011;34866;48.670;18.260;2024-03-22T07:08:05;21.60;;;11.07;;
49051;SDS011;34866;48.670;18.260;2024-03-22T07:10:31;25.52;;;10.90;;
49051;SDS011;34866;48.670;18.260;2024-03-22T07:12:57;24.02;;;11.38;;
49051;SDS011;34866;48.670;18.260;2024-03-22T07:15:23;21.10;;;11.02;;
49051;SDS011;34866;48.670;18.260;2024-03-22T07:17:49;25.00;;;11.40;;
49051;SDS011;34866;48.670;18.260;2024-03-22T07:20:16;22.92;;;11.30;;
49051;SDS011;34866;48.670;18.260;2024-03-22T07:22:42;23.70;;;11.82;;
49051;SDS011;34866;48.670;18.260;2024-03-22T07:25:08;26.25;;;11.07;;
49051;SDS011;34866;48.670;18.260;2024-03-22T07:27:36;26.50;;;10.07;;
49051;SDS011;34866;48.670;18.260;2024-03-22T07:30:02;26.80;;;11.98;;
49051;SDS011;34866;48.670;18.260;2024-03-22T07:32:30;21.48;;;11.18;;
49051;SDS011;34866;48.670;18.260;2024-03-22T07:34:55;23.58;;;10.20;;
49051;SDS011;34866;48.670;18.260;2024-03-22T07:37:21;24.92;;;11.95;;
49051;SDS011;34866;48.670;18.260;2024-03-22T07:39:47;19.80;;;11.00;;
49051;SDS011;34866;48.670;18.260;2024-03-22T07:42:13;23.73;;;10.85;;
49051;SDS011;34866;48.670;18.260;2024-03-22T07:44:39;23.38;;;10.05;;
49051;SDS011;34866;48.670;18.260;2024-03-22T07:47:04;22.67;;;11.52;;
49051;SDS011;34866;48.670;18.260;2024-03-22T07:49:30;23.77;;;11.88;;
49051;SDS011;34866;48.670;18.260;2024-03-22T07:51:58;19.63;;;9.98;;
49051;SDS011;34866;48.670;18.260;2024-03-22T07:54:23;23.67;;;10.75;;
49051;SDS011;34866;48.670;18.260;2024-03-22T07:56:49;23.88;;;10.70;;
49051;SDS011;34866;48.670;18.260;2024-03-22T07:59:15;23.02;;;10.80;;
49051;SDS011;34866;48.670;18.260;2024-03-22T08:01:40;20.25;;;10.18;;
49051;SDS011;34866;48.670;18.260;2024-03-22T08:04:06;32.22;;;10.68;;
49051;SDS011;34866;48.670;18.260;2024-03-22T08:06:32;20.48;;;9.98;;
49051;SDS011;34866;48.670;18.260;2024-03-22T08:08:57;21.48;;;10.13;;
49051;SDS011;34866;48.670;18.260;2024-03-22T08:11:23;20.85;;;10.02;;
49051;SDS011;34866;48.670;18.260;2024-03-22T08:13:48;21.20;;;9.70;;
49051;SDS011;34866;48.670;18.260;2024-03-22T08:16:14;23.80;;;9.27;;
49051;SDS011;34866;48.670;18.260;2024-03-22T08:18:40;19.23;;;10.35;;
49051;SDS011;34866;48.670;18.260;2024-03-22T08:21:05;19.48;;;10.70;;
49051;SDS011;34866;48.670;18.260;2024-03-22T08:23:31;24.13;;;10.32;;
49051;SDS011;34866;48.670;18.260;2024-03-22T08:25:58;20.25;;;10.00;;
49051;SDS011;34866;48.670;18.260;2024-03-22T08:28:24;21.08;;;10.95;;
49051;SDS011;34866;48.670;18.260;2024-03-22T08:30:50;20.30;;;10.20;;
49051;SDS011;34866;48.670;18.260;2024-03-22T08:33:16;21.90;;;10.40;;
49051;SDS011;34866;48.670;18.260;2024-03-22T08:35:42;21.75;;;9.20;;
49051;SDS011;34866;48.670;18.260;2024-03-22T08:38:08;22.23;;;10.50;;
49051;SDS011;34866;48.670;18.260;2024-03-22T08:40:39;22.40;;;10.95;;
49051;SDS011;34866;48.670;18.260;2024-03-22T08:43:06;20.55;;;11.30;;
49051;SDS011;34866;48.670;18.260;2024-03-22T08:45:32;19.95;;;10.80;;
49051;SDS011;34866;48.670;18.260;2024-03-22T08:47:58;21.77;;;12.07;;
49051;SDS011;34866;48.670;18.260;2024-03-22T08:50:25;22.92;;;11.50;;
49051;SDS011;34866;48.670;18.260;2024-03-22T08:52:51;22.98;;;10.98;;
49051;SDS011;34866;48.670;18.260;2024-03-22T08:55:18;21.95;;;12.50;;
49051;SDS011;34866;48.670;18.260;2024-03-22T08:57:44;21.80;;;11.50;;
49051;SDS011;34866;48.670;18.260;2024-03-22T09:00:11;25.77;;;10.82;;
49051;SDS011;34866;48.670;18.260;2024-03-22T09:02:37;21.98;;;9.88;;
49051;SDS011;34866;48.670;18.260;2024-03-22T09:05:04;21.55;;;10.35;;
49051;SDS011;34866;48.670;18.260;2024-03-22T09:07:30;20.70;;;10.75;;
49051;SDS011;34866;48.670;18.260;2024-03-22T09:09:56;24.27;;;11.73;;
49051;SDS011;34866;48.670;18.260;2024-03-22T09:12:22;19.17;;;10.52;;
49051;SDS011;34866;48.670;18.260;2024-03-22T09:14:48;18.63;;;8.85;;
49051;SDS011;34866;48.670;18.260;2024-03-22T09:17:14;20.73;;;9.52;;
49051;SDS011;34866;48.670;18.260;2024-03-22T09:19:41;20.25;;;10.80;;
49051;SDS011;34866;48.670;18.260;2024-03-22T09:22:07;17.85;;;10.32;;
49051;SDS011;34866;48.670;18.260;2024-03-22T09:24:33;25.73;;;11.48;;
49051;SDS011;34866;48.670;18.260;2024-03-22T09:26:59;19.90;;;10.55;;
49051;SDS011;34866;48.670;18.260;2024-03-22T09:29:25;17.63;;;9.10;;
49051;SDS011;34866;48.670;18.260;2024-03-22T09:31:51;18.73;;;10.13;;
49051;SDS011;34866;48.670;18.260;2024-03-22T09:34:17;19.55;;;9.13;;
49051;SDS011;34866;48.670;18.260;2024-03-22T09:36:43;19.67;;;8.73;;
49051;SDS011;34866;48.670;18.260;2024-03-22T09:39:09;16.55;;;8.38;;
49051;SDS011;34866;48.670;18.260;2024-03-22T09:41:38;17.17;;;9.05;;
49051;SDS011;34866;48.670;18.260;2024-03-22T09:44:07;16.20;;;8.65;;
49051;SDS011;34866;48.670;18.260;2024-03-22T09:46:35;18.02;;;8.45;;
49051;SDS011;34866;48.670;18.260;2024-03-22T09:49:02;15.82;;;8.05;;
49051;SDS011;34866;48.670;18.260;2024-03-22T09:51:28;17.25;;;8.10;;
49051;SDS011;34866;48.670;18.260;2024-03-22T09:53:54;26.38;;;8.60;;
49051;SDS011;34866;48.670;18.260;2024-03-22T09:56:21;16.10;;;8.05;;
49051;SDS011;34866;48.670;18.260;2024-03-22T09:58:47;19.58;;;8.55;;
49051;SDS011;34866;48.670;18.260;2024-03-22T10:01:14;18.45;;;7.90;;
49051;SDS011;34866;48.670;18.260;2024-03-22T10:03:41;17.55;;;7.93;;
49051;SDS011;34866;48.670;18.260;2024-03-22T10:06:07;14.90;;;7.57;;
49051;SDS011;34866;48.670;18.260;2024-03-22T10:08:33;14.05;;;6.90;;
49051;SDS011;34866;48.670;18.260;2024-03-22T10:11:01;15.45;;;8.02;;
49051;SDS011;34866;48.670;18.260;2024-03-22T10:13:28;15.85;;;7.50;;
49051;SDS011;34866;48.670;18.260;2024-03-22T10:15:54;18.42;;;7.93;;
49051;SDS011;34866;48.670;18.260;2024-03-22T10:18:21;14.95;;;7.40;;
49051;SDS011;34866;48.670;18.260;2024-03-22T10:20:47;15.13;;;7.25;;
49051;SDS011;34866;48.670;18.260;2024-03-22T10:23:23;14.80;;;7.40;;
49051;SDS011;34866;48.670;18.260;2024-03-22T10:25:51;12.73;;;7.15;;
49051;SDS011;34866;48.670;18.260;2024-03-22T10:28:16;13.38;;;7.15;;
49051;SDS011;34866;48.670;18.260;2024-03-22T10:30:42;15.82;;;6.93;;
49051;SDS011;34866;48.670;18.260;2024-03-22T10:33:09;19.10;;;7.97;;
49051;SDS011;34866;48.670;18.260;2024-03-22T10:35:35;15.95;;;7.10;;
49051;SDS011;34866;48.670;18.260;2024-03-22T10:38:01;22.38;;;7.72;;
49051;SDS011;34866;48.670;18.260;2024-03-22T10:40:28;14.57;;;6.88;;
49051;SDS011;34866;48.670;18.260;2024-03-22T10:42:55;13.75;;;7.07;;
49051;SDS011;34866;48.670;18.260;2024-03-22T10:45:22;15.75;;;6.72;;
49051;SDS011;34866;48.670;18.260;2024-03-22T10:47:50;12.00;;;6.15;;
49051;SDS011;34866;48.670;18.260;2024-03-22T10:50:20;18.52;;;6.40;;
49051;SDS011;34866;48.670;18.260;2024-03-22T10:52:50;13.27;;;7.15;;
49051;SDS011;34866;48.670;18.260;2024-03-22T10:57:53;15.38;;;7.82;;
49051;SDS011;34866;48.670;18.260;2024-03-22T11:00:27;16.65;;;7.03;;
49051;SDS011;34866;48.670;18.260;2024-03-22T11:02:53;13.80;;;7.40;;
49051;SDS011;34866;48.670;18.260;2024-03-22T11:05:20;13.32;;;7.57;;
49051;SDS011;34866;48.670;18.260;2024-03-22T11:07:46;18.83;;;7.50;;
49051;SDS011;34866;48.670;18.260;2024-03-22T11:10:13;12.68;;;7.00;;
49051;SDS011;34866;48.670;18.260;2024-03-22T11:12:39;12.35;;;6.78;;
49051;SDS011;34866;48.670;18.260;2024-03-22T11:15:06;13.30;;;7.07;;
49051;SDS011;34866;48.670;18.260;2024-03-22T11:17:32;13.00;;;7.25;;
49051;SDS011;34866;48.670;18.260;2024-03-22T11:19:58;13.15;;;6.68;;
49051;SDS011;34866;48.670;18.260;2024-03-22T11:22:25;16.90;;;6.57;;
49051;SDS011;34866;48.670;18.260;2024-03-22T11:24:52;11.00;;;5.90;;
49051;SDS011;34866;48.670;18.260;2024-03-22T11:27:18;15.23;;;6.90;;
49051;SDS011;34866;48.670;18.260;2024-03-22T11:29:44;11.80;;;6.22;;
49051;SDS011;34866;48.670;18.260;2024-03-22T11:32:11;12.57;;;6.50;;
49051;SDS011;34866;48.670;18.260;2024-03-22T11:34:37;11.77;;;5.78;;
49051;SDS011;34866;48.670;18.260;2024-03-22T11:37:05;12.95;;;6.35;;
49051;SDS011;34866;48.670;18.260;2024-03-22T11:39:38;12.15;;;5.97;;
49051;SDS011;34866;48.670;18.260;2024-03-22T11:42:05;11.88;;;6.45;;
49051;SDS011;34866;48.670;18.260;2024-03-22T11:44:33;12.25;;;6.10;;
49051;SDS011;34866;48.670;18.260;2024-03-22T11:47:01;11.52;;;6.05;;
49051;SDS011;34866;48.670;18.260;2024-03-22T11:49:28;15.98;;;6.43;;
49051;SDS011;34866;48.670;18.260;2024-03-22T11:51:55;15.27;;;6.63;;
49051;SDS011;34866;48.670;18.260;2024-03-22T11:54:22;11.82;;;6.55;;
49051;SDS011;34866;48.670;18.260;2024-03-22T11:56:48;11.77;;;6.00;;
49051;SDS011;34866;48.670;18.260;2024-03-22T11:59:18;11.93;;;5.80;;
49051;SDS011;34866;48.670;18.260;2024-03-22T12:01:45;12.43;;;6.80;;
49051;SDS011;34866;48.670;18.260;2024-03-22T12:04:11;16.08;;;5.85;;
49051;SDS011;34866;48.670;18.260;2024-03-22T12:06:43;14.35;;;6.68;;
49051;SDS011;34866;48.670;18.260;2024-03-22T12:09:10;11.30;;;6.35;;
49051;SDS011;34866;48.670;18.260;2024-03-22T12:11:38;17.38;;;6.55;;
49051;SDS011;34866;48.670;18.260;2024-03-22T12:14:04;12.60;;;6.45;;
49051;SDS011;34866;48.670;18.260;2024-03-22T12:16:30;10.63;;;6.05;;
49051;SDS011;34866;48.670;18.260;2024-03-22T12:18:57;11.60;;;5.40;;
49051;SDS011;34866;48.670;18.260;2024-03-22T12:21:23;13.02;;;6.57;;
49051;SDS011;34866;48.670;18.260;2024-03-22T12:23:49;10.80;;;5.32;;
49051;SDS011;34866;48.670;18.260;2024-03-22T12:26:15;9.93;;;5.10;;
49051;SDS011;34866;48.670;18.260;2024-03-22T12:28:41;9.48;;;5.47;;
49051;SDS011;34866;48.670;18.260;2024-03-22T12:31:07;13.07;;;6.93;;
49051;SDS011;34866;48.670;18.260;2024-03-22T12:33:33;10.55;;;4.68;;
49051;SDS011;34866;48.670;18.260;2024-03-22T12:35:59;12.20;;;6.55;;
49051;SDS011;34866;48.670;18.260;2024-03-22T12:38:25;13.57;;;6.22;;
49051;SDS011;34866;48.670;18.260;2024-03-22T12:40:51;11.70;;;5.97;;
49051;SDS011;34866;48.670;18.260;2024-03-22T12:43:16;12.82;;;5.82;;
49051;SDS011;34866;48.670;18.260;2024-03-22T12:45:42;12.95;;;6.40;;
49051;SDS011;34866;48.670;18.260;2024-03-22T12:48:08;12.65;;;6.38;;
49051;SDS011;34866;48.670;18.260;2024-03-22T12:50:34;11.13;;;6.63;;
49051;SDS011;34866;48.670;18.260;2024-03-22T12:53:01;9.98;;;5.55;;
49051;SDS011;34866;48.670;18.260;2024-03-22T12:55:27;11.38;;;6.18;;
49051;SDS011;34866;48.670;18.260;2024-03-22T12:57:53;12.35;;;5.97;;
49051;SDS011;34866;48.670;18.260;2024-03-22T13:00:19;10.70;;;5.45;;
49051;SDS011;34866;48.670;18.260;2024-03-22T13:02:45;12.63;;;5.25;;
49051;SDS011;34866;48.670;18.260;2024-03-22T13:05:11;10.57;;;5.70;;
49051;SDS011;34866;48.670;18.260;2024-03-22T13:07:37;10.10;;;5.78;;
49051;SDS011;34866;48.670;18.260;2024-03-22T13:10:04;10.40;;;5.70;;
49051;SDS011;34866;48.670;18.260;2024-03-22T13:12:30;10.13;;;5.55;;
49051;SDS011;34866;48.670;18.260;2024-03-22T13:14:59;11.68;;;6.18;;
49051;SDS011;34866;48.670;18.260;2024-03-22T13:17:24;12.65;;;5.93;;
49051;SDS011;34866;48.670;18.260;2024-03-22T13:19:50;12.55;;;6.05;;
49051;SDS011;34866;48.670;18.260;2024-03-22T13:22:15;10.32;;;5.97;;
49051;SDS011;34866;48.670;18.260;2024-03-22T13:24:43;14.00;;;6.20;;
49051;SDS011;34866;48.670;18.260;2024-03-22T13:27:10;10.73;;;5.38;;
49051;SDS011;34866;48.670;18.260;2024-03-22T13:29:35;16.88;;;6.20;;
49051;SDS011;34866;48.670;18.260;2024-03-22T13:32:01;8.18;;;4.65;;
49051;SDS011;34866;48.670;18.260;2024-03-22T13:34:27;12.88;;;5.20;;
49051;SDS011;34866;48.670;18.260;2024-03-22T13:36:53;10.07;;;6.13;;
49051;SDS011;34866;48.670;18.260;2024-03-22T13:39:19;12.48;;;6.20;;
49051;SDS011;34866;48.670;18.260;2024-03-22T13:41:44;9.85;;;5.32;;
49051;SDS011;34866;48.670;18.260;2024-03-22T13:44:10;14.65;;;6.60;;
49051;SDS011;34866;48.670;18.260;2024-03-22T13:46:36;10.80;;;5.00;;
49051;SDS011;34866;48.670;18.260;2024-03-22T13:49:12;13.82;;;6.90;;
49051;SDS011;34866;48.670;18.260;2024-03-22T13:51:41;11.40;;;5.97;;
49051;SDS011;34866;48.670;18.260;2024-03-22T13:54:06;10.75;;;5.75;;
49051;SDS011;34866;48.670;18.260;2024-03-22T13:56:32;14.13;;;5.90;;
49051;SDS011;34866;48.670;18.260;2024-03-22T13:58:58;14.80;;;5.20;;
49051;SDS011;34866;48.670;18.260;2024-03-22T14:01:23;11.43;;;5.43;;
49051;SDS011;34866;48.670;18.260;2024-03-22T14:03:49;12.25;;;5.25;;
49051;SDS011;34866;48.670;18.260;2024-03-22T14:06:14;11.80;;;5.30;;
49051;SDS011;34866;48.670;18.260;2024-03-22T14:08:40;10.18;;;5.68;;
49051;SDS011;34866;48.670;18.260;2024-03-22T14:11:07;9.75;;;5.32;;